Time;durP1;ratioP1;P1;durP2;ratioP2;P2;SDS_P1;SDS_P2;PMS_P1;PMS_P2;Temp;Humidity;BMP_temperature;BMP_pressure;BME280_temperature;BME280_humidity;BME280_pressure;Samples;Min_cycle;Max_cycle;Signal;HPM_P1;HPM_P2
2023/09/09 00:01:58;;;;;;;;;;;;;;;;;;5075870;28;19913;-60
2023/09/09 00:04:24;;;;;;;;;;;;;;;;;;5073962;28;19912;-60
2023/09/09 00:06:49;;;;;;;;;;;;;;;;;;5082987;28;19998;-60
2023/09/09 00:09:15;;;;;;;;;;;;;;;;;;5072781;28;19939;-60
2023/09/09 00:11:41;;;;;;;;;;;;;;;;;;5072257;28;19927;-59
2023/09/09 00:14:07;;;;;;;;;;;;;;;;;;5079180;28;19954;-59
2023/09/09 00:16:36;;;;;;;;;;;;;;;;;;5091103;28;19920;-59
2023/09/09 00:19:02;;;;;;;;;;;;;;;;;;5091043;28;20012;-59
2023/09/09 00:21:29;;;;;;;;;;;;;;;;;;5084191;28;19924;-59
2023/09/09 00:23:55;;;;;;;;;;;;;;;;;;5092845;28;19912;-59
2023/09/09 00:26:21;;;;;;;;;;;;;;;;;;5092221;28;19920;-59
2023/09/09 00:28:47;;;;;;;;;;;;;;;;;;5091310;28;19959;-59
2023/09/09 00:31:13;;;;;;;;;;;;;;;;;;5077339;28;19924;-59
2023/09/09 00:33:39;;;;;;;;;;;;;;;;;;5083836;28;20437;-60
2023/09/09 00:36:05;;;;;;;;;;;;;;;;;;5079828;28;19952;-60
2023/09/09 00:38:30;;;;;;;;;;;;;;;;;;5082362;28;20414;-60
2023/09/09 00:40:56;;;;;;;;;;;;;;;;;;5081393;28;19996;-59
2023/09/09 00:43:22;;;;;;;;;;;;;;;;;;5076813;28;19912;-59
2023/09/09 00:45:48;;;;;;;;;;;;;;;;;;5085082;28;19954;-59
2023/09/09 00:48:14;;;;;;;;;;;;;;;;;;5072502;28;20276;-60
2023/09/09 00:50:40;;;;;;;;;;;;;;;;;;5084222;28;20007;-59
2023/09/09 00:53:06;;;;;;;;;;;;;;;;;;5085120;28;19916;-62
2023/09/09 00:55:39;;;;;;;;;;;;;;;;;;5079358;28;19958;-59
2023/09/09 00:58:04;;;;;;;;;;;;;;;;;;5085247;28;19916;-59
2023/09/09 01:00:30;;;;;;;;;;;;;;;;;;5083768;28;20273;-60
2023/09/09 01:02:56;;;;;;;;;;;;;;;;;;5075746;28;19944;-59
2023/09/09 01:05:23;;;;;;;;;;;;;;;;;;5086593;28;19912;-59
2023/09/09 01:07:49;;;;;;;;;;;;;;;;;;5075995;28;20306;-60
2023/09/09 01:10:15;;;;;;;;;;;;;;;;;;5080923;28;19912;-59
2023/09/09 01:12:42;;;;;;;;;;;;;;;;;;5095700;28;19950;-59
2023/09/09 01:15:08;;;;;;;;;;;;;;;;;;5084754;28;19999;-59
2023/09/09 01:17:34;;;;;;;;;;;;;;;;;;5078675;28;20030;-59
2023/09/09 01:20:00;;;;;;;;;;;;;;;;;;5092096;28;19923;-59
2023/09/09 01:22:26;;;;;;;;;;;;;;;;;;5090198;28;19912;-59
2023/09/09 01:24:52;;;;;;;;;;;;;;;;;;5092855;28;20311;-60
2023/09/09 01:27:17;;;;;;;;;;;;;;;;;;5091863;28;19951;-58
2023/09/09 01:29:43;;;;;;;;;;;;;;;;;;5082225;28;19922;-59
2023/09/09 01:32:09;;;;;;;;;;;;;;;;;;5076740;28;19920;-59
2023/09/09 01:34:35;;;;;;;;;;;;;;;;;;5087423;28;19982;-59
2023/09/09 01:37:01;;;;;;;;;;;;;;;;;;5085088;28;20372;-59
2023/09/09 01:39:27;;;;;;;;;;;;;;;;;;5075247;28;19920;-60
2023/09/09 01:41:53;;;;;;;;;;;;;;;;;;5089122;28;20318;-60
2023/09/09 01:44:19;;;;;;;;;;;;;;;;;;5083077;28;19956;-61
2023/09/09 01:46:45;;;;;;;;;;;;;;;;;;5080287;28;19951;-60
2023/09/09 01:49:10;;;;;;;;;;;;;;;;;;5091486;28;19999;-60
2023/09/09 01:51:36;;;;;;;;;;;;;;;;;;5076429;28;19942;-60
2023/09/09 01:54:02;;;;;;;;;;;;;;;;;;5080546;28;19951;-59
2023/09/09 01:56:28;;;;;;;;;;;;;;;;;;5091785;28;19916;-59
2023/09/09 01:58:54;;;;;;;;;;;;;;;;;;5081782;28;19919;-62
2023/09/09 02:01:20;;;;;;;;;;;;;;;;;;5077701;28;20395;-60
2023/09/09 02:03:47;;;;;;;;;;;;;;;;;;5079359;28;19951;-59
2023/09/09 02:06:13;;;;;;;;;;;;;;;;;;5084640;28;20295;-59
2023/09/09 02:08:39;;;;;;;;;;;;;;;;;;5074820;28;20003;-58
2023/09/09 02:11:05;;;;;;;;;;;;;;;;;;5086910;28;20052;-60
2023/09/09 02:13:31;;;;;;;;;;;;;;;;;;5079408;28;20400;-60
2023/09/09 02:15:56;;;;;;;;;;;;;;;;;;5074077;28;19912;-61
2023/09/09 02:18:22;;;;;;;;;;;;;;;;;;5079474;28;20018;-61
2023/09/09 02:20:48;;;;;;;;;;;;;;;;;;5093589;28;19924;-60
2023/09/09 02:23:14;;;;;;;;;;;;;;;;;;5089775;28;20368;-61
2023/09/09 02:25:40;;;;;;;;;;;;;;;;;;5074489;28;19917;-61
2023/09/09 02:28:06;;;;;;;;;;;;;;;;;;5074402;28;20355;-61
2023/09/09 02:30:32;;;;;;;;;;;;;;;;;;5075964;28;19919;-60
2023/09/09 02:32:58;;;;;;;;;;;;;;;;;;5076501;28;19920;-61
2023/09/09 02:35:24;;;;;;;;;;;;;;;;;;5080155;28;20364;-61
2023/09/09 02:37:49;;;;;;;;;;;;;;;;;;5077711;28;20069;-61
2023/09/09 02:40:15;;;;;;;;;;;;;;;;;;5083843;28;20007;-62
2023/09/09 02:42:41;;;;;;;;;;;;;;;;;;5087587;28;19908;-60
2023/09/09 02:45:08;;;;;;;;;;;;;;;;;;5093329;28;20383;-60
2023/09/09 02:47:34;;;;;;;;;;;;;;;;;;5085641;28;19912;-62
2023/09/09 02:50:00;;;;;;;;;;;;;;;;;;5090780;28;20359;-61
2023/09/09 02:52:26;;;;;;;;;;;;;;;;;;5094026;28;20460;-62
2023/09/09 02:54:52;;;;;;;;;;;;;;;;;;5093724;28;20272;-61
2023/09/09 02:57:18;;;;;;;;;;;;;;;;;;5085228;28;19999;-61
2023/09/09 02:59:44;;;;;;;;;;;;;;;;;;5073003;28;19959;-61
2023/09/09 03:02:10;;;;;;;;;;;;;;;;;;5075079;28;20446;-61
2023/09/09 03:04:36;;;;;;;;;;;;;;;;;;5086038;28;20015;-61
2023/09/09 03:07:02;;;;;;;;;;;;;;;;;;5074196;28;19917;-61
2023/09/09 03:09:29;;;;;;;;;;;;;;;;;;5082522;28;19958;-60
2023/09/09 03:11:56;;;;;;;;;;;;;;;;;;5078108;28;20390;-61
2023/09/09 03:14:22;;;;;;;;;;;;;;;;;;5080792;28;19912;-61
2023/09/09 03:16:48;;;;;;;;;;;;;;;;;;5076926;28;20315;-61
2023/09/09 03:19:14;;;;;;;;;;;;;;;;;;5072775;28;19913;-61
2023/09/09 03:21:40;;;;;;;;;;;;;;;;;;5086989;28;19976;-62
2023/09/09 03:24:05;;;;;;;;;;;;;;;;;;5088990;28;20411;-62
2023/09/09 03:26:32;;;;;;;;;;;;;;;;;;5080646;28;19912;-62
2023/09/09 03:28:58;;;;;;;;;;;;;;;;;;5072983;28;20280;-62
2023/09/09 03:31:24;;;;;;;;;;;;;;;;;;5088355;28;19969;-62
2023/09/09 03:33:50;;;;;;;;;;;;;;;;;;5072827;28;19966;-60
2023/09/09 03:36:16;;;;;;;;;;;;;;;;;;5077309;28;19974;-63
2023/09/09 03:38:42;;;;;;;;;;;;;;;;;;5084993;28;19958;-62
2023/09/09 03:41:08;;;;;;;;;;;;;;;;;;5091264;28;19912;-63
2023/09/09 03:43:33;;;;;;;;;;;;;;;;;;5079381;28;20367;-62
2023/09/09 03:45:59;;;;;;;;;;;;;;;;;;5072654;28;19920;-62
2023/09/09 03:48:25;;;;;;;;;;;;;;;;;;5072660;28;20387;-63
2023/09/09 03:50:51;;;;;;;;;;;;;;;;;;5072770;28;20010;-62
2023/09/09 03:53:17;;;;;;;;;;;;;;;;;;5081908;28;20300;-62
2023/09/09 03:55:43;;;;;;;;;;;;;;;;;;5091632;28;20284;-62
2023/09/09 03:58:09;;;;;;;;;;;;;;;;;;5087809;28;19978;-63
2023/09/09 04:00:35;;;;;;;;;;;;;;;;;;5083730;28;19912;-62
2023/09/09 04:03:01;;;;;;;;;;;;;;;;;;5075700;28;19920;-62
2023/09/09 04:05:27;;;;;;;;;;;;;;;;;;5083485;28;19938;-62
2023/09/09 04:07:53;;;;;;;;;;;;;;;;;;5078225;28;20338;-62
2023/09/09 04:10:19;;;;;;;;;;;;;;;;;;5082155;28;19921;-62
2023/09/09 04:12:44;;;;;;;;;;;;;;;;;;5072007;28;20011;-62
2023/09/09 04:15:10;;;;;;;;;;;;;;;;;;5074636;28;19923;-62
2023/09/09 04:17:38;;;;;;;;;;;;;;;;;;5079825;28;19970;-63
2023/09/09 04:20:04;;;;;;;;;;;;;;;;;;5084890;28;20280;-62
2023/09/09 04:22:30;;;;;;;;;;;;;;;;;;5077624;28;19921;-62
2023/09/09 04:24:56;;;;;;;;;;;;;;;;;;5077623;28;20046;-62
2023/09/09 04:27:22;;;;;;;;;;;;;;;;;;5086039;28;19967;-63
2023/09/09 04:29:48;;;;;;;;;;;;;;;;;;5080262;28;20007;-61
2023/09/09 04:32:14;;;;;;;;;;;;;;;;;;5093039;28;19978;-61
2023/09/09 04:34:40;;;;;;;;;;;;;;;;;;5087203;28;19997;-61
2023/09/09 04:37:05;;;;;;;;;;;;;;;;;;5094817;28;19962;-61
2023/09/09 04:39:31;;;;;;;;;;;;;;;;;;5093476;28;19928;-61
2023/09/09 04:41:57;;;;;;;;;;;;;;;;;;5085892;28;19955;-61
2023/09/09 04:44:23;;;;;;;;;;;;;;;;;;5087390;28;20393;-62
2023/09/09 04:46:49;;;;;;;;;;;;;;;;;;5084797;28;19919;-61
2023/09/09 04:49:17;;;;;;;;;;;;;;;;;;5078940;28;19920;-61
2023/09/09 04:51:43;;;;;;;;;;;;;;;;;;5082285;28;19942;-61
2023/09/09 04:54:08;;;;;;;;;;;;;;;;;;5082979;28;19920;-61
2023/09/09 04:56:34;;;;;;;;;;;;;;;;;;5088990;28;20448;-61
2023/09/09 04:59:00;;;;;;;;;;;;;;;;;;5079614;28;19919;-61
2023/09/09 05:01:29;;;;;;;;;;;;;;;;;;5087498;28;19951;-62
2023/09/09 05:03:55;;;;;;;;;;;;;;;;;;5082222;28;19920;-64
2023/09/09 05:06:21;;;;;;;;;;;;;;;;;;5085413;28;20482;-62
2023/09/09 05:08:47;;;;;;;;;;;;;;;;;;5081359;28;19928;-61
2023/09/09 05:11:13;;;;;;;;;;;;;;;;;;5088071;28;20003;-61
2023/09/09 05:13:39;;;;;;;;;;;;;;;;;;5089048;28;19918;-60
2023/09/09 05:16:04;;;;;;;;;;;;;;;;;;5081884;28;19962;-60
2023/09/09 05:18:30;;;;;;;;;;;;;;;;;;5087374;28;19967;-60
2023/09/09 05:20:56;;;;;;;;;;;;;;;;;;5092804;28;19924;-60
2023/09/09 05:23:22;;;;;;;;;;;;;;;;;;5084744;28;20355;-61
2023/09/09 05:25:48;;;;;;;;;;;;;;;;;;5091088;28;19919;-60
2023/09/09 05:28:14;;;;;;;;;;;;;;;;;;5083905;28;19912;-61
2023/09/09 05:30:40;;;;;;;;;;;;;;;;;;5093953;28;20321;-60
2023/09/09 05:33:06;;;;;;;;;;;;;;;;;;5085193;28;19923;-61
2023/09/09 05:35:32;;;;;;;;;;;;;;;;;;5090861;28;19968;-60
2023/09/09 05:37:58;;;;;;;;;;;;;;;;;;5079266;28;19916;-60
2023/09/09 05:40:24;;;;;;;;;;;;;;;;;;5078665;28;19951;-61
2023/09/09 05:42:50;;;;;;;;;;;;;;;;;;5081863;28;20012;-61
2023/09/09 05:45:16;;;;;;;;;;;;;;;;;;5085215;28;20399;-60
2023/09/09 05:47:45;;;;;;;;;;;;;;;;;;5080825;28;19922;-60
2023/09/09 05:50:11;;;;;;;;;;;;;;;;;;5076194;28;20449;-61
2023/09/09 05:52:37;;;;;;;;;;;;;;;;;;5090685;28;19916;-61
2023/09/09 05:55:03;;;;;;;;;;;;;;;;;;5092649;28;20348;-60
2023/09/09 05:57:32;;;;;;;;;;;;;;;;;;5084317;28;19917;-60
2023/09/09 05:59:58;;;;;;;;;;;;;;;;;;5089961;28;19918;-60
2023/09/09 06:02:24;;;;;;;;;;;;;;;;;;5075558;28;20380;-60
2023/09/09 06:04:50;;;;;;;;;;;;;;;;;;5080233;28;20030;-60
2023/09/09 06:07:15;;;;;;;;;;;;;;;;;;5073722;28;19955;-61
2023/09/09 06:09:41;;;;;;;;;;;;;;;;;;5073988;28;19921;-60
2023/09/09 06:12:07;;;;;;;;;;;;;;;;;;5077891;28;20003;-61
2023/09/09 06:14:33;;;;;;;;;;;;;;;;;;5086883;28;19998;-60
2023/09/09 06:16:59;;;;;;;;;;;;;;;;;;5081501;28;20054;-60
2023/09/09 06:19:25;;;;;;;;;;;;;;;;;;5077238;28;19920;-61
2023/09/09 06:21:51;;;;;;;;;;;;;;;;;;5079914;28;19925;-60
2023/09/09 06:24:17;;;;;;;;;;;;;;;;;;5078022;28;20007;-60
2023/09/09 06:26:43;;;;;;;;;;;;;;;;;;5084174;28;19922;-60
2023/09/09 06:29:09;;;;;;;;;;;;;;;;;;5088726;28;20379;-61
2023/09/09 06:31:35;;;;;;;;;;;;;;;;;;5080815;28;19948;-60
2023/09/09 06:34:01;;;;;;;;;;;;;;;;;;5081241;28;19956;-60
2023/09/09 06:36:27;;;;;;;;;;;;;;;;;;5082524;28;20368;-60
2023/09/09 06:38:53;;;;;;;;;;;;;;;;;;5087935;28;19916;-60
2023/09/09 06:41:19;;;;;;;;;;;;;;;;;;5080992;28;20275;-61
2023/09/09 06:43:46;;;;;;;;;;;;;;;;;;5073169;28;19963;-61
2023/09/09 06:46:12;;;;;;;;;;;;;;;;;;5077252;28;20390;-60
2023/09/09 06:48:38;;;;;;;;;;;;;;;;;;5076915;28;20007;-60
2023/09/09 06:51:04;;;;;;;;;;;;;;;;;;5071890;28;19929;-60
2023/09/09 06:53:30;;;;;;;;;;;;;;;;;;5071494;28;19962;-60
2023/09/09 06:55:56;;;;;;;;;;;;;;;;;;5083058;28;19913;-60
2023/09/09 06:58:22;;;;;;;;;;;;;;;;;;5076571;28;19966;-60
2023/09/09 07:00:48;;;;;;;;;;;;;;;;;;5080368;28;19959;-60
2023/09/09 07:03:13;;;;;;;;;;;;;;;;;;5074711;28;20287;-60
2023/09/09 07:05:39;;;;;;;;;;;;;;;;;;5081987;28;19920;-60
2023/09/09 07:08:05;;;;;;;;;;;;;;;;;;5074591;28;19952;-60
2023/09/09 07:10:31;;;;;;;;;;;;;;;;;;5076822;28;19944;-60
2023/09/09 07:12:57;;;;;;;;;;;;;;;;;;5079496;28;20045;-60
2023/09/09 07:15:23;;;;;;;;;;;;;;;;;;5086426;28;19920;-60
2023/09/09 07:17:49;;;;;;;;;;;;;;;;;;5078016;28;19983;-60
2023/09/09 07:20:15;;;;;;;;;;;;;;;;;;5081926;28;19975;-60
2023/09/09 07:22:41;;;;;;;;;;;;;;;;;;5074498;28;19912;-60
2023/09/09 07:25:07;;;;;;;;;;;;;;;;;;5076804;28;19974;-60
2023/09/09 07:27:33;;;;;;;;;;;;;;;;;;5081940;28;19946;-60
2023/09/09 07:29:59;;;;;;;;;;;;;;;;;;5085018;28;19970;-59
2023/09/09 07:32:25;;;;;;;;;;;;;;;;;;5073480;28;19913;-60
2023/09/09 07:34:51;;;;;;;;;;;;;;;;;;5078831;28;19917;-60
2023/09/09 07:37:17;;;;;;;;;;;;;;;;;;5081193;28;20030;-60
2023/09/09 07:39:43;;;;;;;;;;;;;;;;;;5081680;28;20015;-60
2023/09/09 07:42:08;;;;;;;;;;;;;;;;;;5077392;28;20061;-60
2023/09/09 07:44:34;;;;;;;;;;;;;;;;;;5085033;28;21948;-60
2023/09/09 07:47:04;;;;;;;;;;;;;;;;;;5080894;28;19923;-59
2023/09/09 07:49:30;;;;;;;;;;;;;;;;;;5074993;28;19916;-60
2023/09/09 07:51:56;;;;;;;;;;;;;;;;;;5073991;28;19943;-60
2023/09/09 07:54:22;;;;;;;;;;;;;;;;;;5078294;28;20403;-61
2023/09/09 07:56:48;;;;;;;;;;;;;;;;;;5078281;28;19924;-60
2023/09/09 07:59:16;;;;;;;;;;;;;;;;;;5078099;28;20412;-60
2023/09/09 08:01:42;;;;;;;;;;;;;;;;;;5073735;28;20287;-61
2023/09/09 08:04:08;;;;;;;;;;;;;;;;;;5077921;28;19962;-61
2023/09/09 08:06:34;;;;;;;;;;;;;;;;;;5080528;28;19948;-61
2023/09/09 08:09:01;;;;;;;;;;;;;;;;;;5078540;28;19961;-61
2023/09/09 08:11:26;;;;;;;;;;;;;;;;;;5080175;28;19912;-61
2023/09/09 08:13:52;;;;;;;;;;;;;;;;;;5075567;28;19958;-61
2023/09/09 08:16:18;;;;;;;;;;;;;;;;;;5080132;28;19916;-60
2023/09/09 08:18:44;;;;;;;;;;;;;;;;;;5076256;28;19965;-61
2023/09/09 08:21:12;;;;;;;;;;;;;;;;;;5078886;28;19946;-61
2023/09/09 08:23:38;;;;;;;;;;;;;;;;;;5073130;28;20366;-61
2023/09/09 08:26:04;;;;;;;;;;;;;;;;;;5078062;28;20003;-61
2023/09/09 08:28:30;;;;;;;;;;;;;;;;;;5082657;28;19915;-61
2023/09/09 08:30:56;;;;;;;;;;;;;;;;;;5080933;28;19966;-61
2023/09/09 08:33:22;;;;;;;;;;;;;;;;;;5079965;28;19916;-61
2023/09/09 08:35:48;;;;;;;;;;;;;;;;;;5072798;28;20400;-61
2023/09/09 08:38:14;;;;;;;;;;;;;;;;;;5071932;28;19923;-61
2023/09/09 08:40:40;;;;;;;;;;;;;;;;;;5079117;28;20383;-61
2023/09/09 08:43:06;;;;;;;;;;;;;;;;;;5088110;28;19959;-61
2023/09/09 08:45:33;;;;;;;;;;;;;;;;;;5080839;28;19921;-61
2023/09/09 08:47:59;;;;;;;;;;;;;;;;;;5078008;28;19951;-61
2023/09/09 08:50:25;;;;;;;;;;;;;;;;;;5082438;28;19912;-61
2023/09/09 08:52:51;;;;;;;;;;;;;;;;;;5071026;28;20343;-61
2023/09/09 08:55:17;;;;;;;;;;;;;;;;;;5081870;28;20387;-61
2023/09/09 08:57:42;;;;;;;;;;;;;;;;;;5078355;28;19917;-61
2023/09/09 09:00:08;;;;;;;;;;;;;;;;;;5071568;28;20334;-61
2023/09/09 09:02:34;;;;;;;;;;;;;;;;;;5073873;28;20013;-62
2023/09/09 09:05:00;;;;;;;;;;;;;;;;;;5078654;28;20008;-61
2023/09/09 09:07:27;;;;;;;;;;;;;;;;;;5075973;28;19920;-61
2023/09/09 09:09:54;;;;;;;;;;;;;;;;;;5073862;28;20308;-61
2023/09/09 09:12:20;;;;;;;;;;;;;;;;;;5084723;28;20002;-61
2023/09/09 09:14:46;;;;;;;;;;;;;;;;;;5073325;28;20019;-61
2023/09/09 09:17:12;;;;;;;;;;;;;;;;;;5079405;28;20368;-60
2023/09/09 09:19:38;;;;;;;;;;;;;;;;;;5084386;28;20438;-59
2023/09/09 09:22:04;;;;;;;;;;;;;;;;;;5075469;28;20032;-59
2023/09/09 09:24:29;;;;;;;;;;;;;;;;;;5074779;28;20445;-60
2023/09/09 09:26:55;;;;;;;;;;;;;;;;;;5078034;28;19957;-59
2023/09/09 09:29:21;;;;;;;;;;;;;;;;;;5090185;28;19926;-59
2023/09/09 09:31:47;;;;;;;;;;;;;;;;;;5085849;28;19977;-60
2023/09/09 09:34:16;;;;;;;;;;;;;;;;;;5082020;28;20019;-60
2023/09/09 09:36:42;;;;;;;;;;;;;;;;;;5083012;28;19955;-60
2023/09/09 09:39:10;;;;;;;;;;;;;;;;;;5086146;28;19982;-60
2023/09/09 09:41:36;;;;;;;;;;;;;;;;;;5080549;28;19967;-60
2023/09/09 09:44:02;;;;;;;;;;;;;;;;;;5081651;28;20736;-59
2023/09/09 09:46:28;;;;;;;;;;;;;;;;;;5076282;28;19943;-59
2023/09/09 09:48:54;;;;;;;;;;;;;;;;;;5081505;28;19951;-59
2023/09/09 09:51:20;;;;;;;;;;;;;;;;;;5082127;28;20003;-59
2023/09/09 09:53:46;;;;;;;;;;;;;;;;;;5087781;28;19997;-59
2023/09/09 09:56:12;;;;;;;;;;;;;;;;;;5079751;28;20061;-60
2023/09/09 09:58:38;;;;;;;;;;;;;;;;;;5088148;28;19982;-59
2023/09/09 10:01:04;;;;;;;;;;;;;;;;;;5078829;28;19917;-59
2023/09/09 10:03:30;;;;;;;;;;;;;;;;;;5083692;28;19960;-59
2023/09/09 10:05:56;;;;;;;;;;;;;;;;;;5077763;28;20019;-60
2023/09/09 10:08:21;;;;;;;;;;;;;;;;;;5084694;28;20325;-61
2023/09/09 10:10:47;;;;;;;;;;;;;;;;;;5080498;28;19920;-61
2023/09/09 10:13:13;;;;;;;;;;;;;;;;;;5082138;28;19959;-60
2023/09/09 10:15:39;;;;;;;;;;;;;;;;;;5085349;28;19995;-60
2023/09/09 10:18:05;;;;;;;;;;;;;;;;;;5081859;28;19922;-60
2023/09/09 10:20:31;;;;;;;;;;;;;;;;;;5081536;28;19964;-61
2023/09/09 10:22:59;;;;;;;;;;;;;;;;;;5081072;28;20482;-61
2023/09/09 10:25:25;;;;;;;;;;;;;;;;;;5082383;28;19931;-60
2023/09/09 10:27:51;;;;;;;;;;;;;;;;;;5084179;28;20765;-61
2023/09/09 10:30:17;;;;;;;;;;;;;;;;;;5077361;28;19912;-61
2023/09/09 10:32:43;;;;;;;;;;;;;;;;;;5075756;28;19938;-61
2023/09/09 10:35:09;;;;;;;;;;;;;;;;;;5075946;28;19965;-61
2023/09/09 10:37:35;;;;;;;;;;;;;;;;;;5080893;28;19955;-61
2023/09/09 10:40:01;;;;;;;;;;;;;;;;;;5085933;28;19927;-61
2023/09/09 10:42:27;;;;;;;;;;;;;;;;;;5083930;28;19952;-61
2023/09/09 10:44:52;;;;;;;;;;;;;;;;;;5075321;28;20407;-61
2023/09/09 10:47:19;;;;;;;;;;;;;;;;;;5081510;28;19928;-61
2023/09/09 10:49:45;;;;;;;;;;;;;;;;;;5082439;28;19912;-61
2023/09/09 10:52:11;;;;;;;;;;;;;;;;;;5087680;28;19923;-62
2023/09/09 10:54:37;;;;;;;;;;;;;;;;;;5077396;28;21251;-61
2023/09/09 10:57:03;;;;;;;;;;;;;;;;;;5077559;28;19924;-61
2023/09/09 10:59:29;;;;;;;;;;;;;;;;;;5079972;28;19918;-61
2023/09/09 11:01:55;;;;;;;;;;;;;;;;;;5091043;28;19919;-62
2023/09/09 11:04:21;;;;;;;;;;;;;;;;;;5080169;28;19985;-61
2023/09/09 11:06:47;;;;;;;;;;;;;;;;;;5079376;28;19916;-61
2023/09/09 11:09:12;;;;;;;;;;;;;;;;;;5081968;28;19958;-61
2023/09/09 11:11:41;;;;;;;;;;;;;;;;;;5075882;28;19975;-62
2023/09/09 11:14:07;;;;;;;;;;;;;;;;;;5075672;28;19913;-61
2023/09/09 11:16:33;;;;;;;;;;;;;;;;;;5073286;28;20000;-63
2023/09/09 11:18:59;;;;;;;;;;;;;;;;;;5077522;28;19916;-62
2023/09/09 11:21:25;;;;;;;;;;;;;;;;;;5077049;28;19924;-62
2023/09/09 11:23:51;;;;;;;;;;;;;;;;;;5079974;28;20073;-62
2023/09/09 11:26:17;;;;;;;;;;;;;;;;;;5075065;28;19959;-62
2023/09/09 11:28:43;;;;;;;;;;;;;;;;;;5079313;28;21905;-60
2023/09/09 11:31:09;;;;;;;;;;;;;;;;;;5083994;28;20106;-60
2023/09/09 11:33:35;;;;;;;;;;;;;;;;;;5087226;28;19916;-60
2023/09/09 11:36:01;;;;;;;;;;;;;;;;;;5079806;28;19916;-61
2023/09/09 11:38:27;;;;;;;;;;;;;;;;;;5083289;28;19963;-60
2023/09/09 11:40:52;;;;;;;;;;;;;;;;;;5075662;28;19944;-60
2023/09/09 11:43:18;;;;;;;;;;;;;;;;;;5085223;28;19993;-61
2023/09/09 11:45:44;;;;;;;;;;;;;;;;;;5074550;28;19964;-61
2023/09/09 11:48:13;;;;;;;;;;;;;;;;;;5075362;28;20053;-60
2023/09/09 11:50:39;;;;;;;;;;;;;;;;;;5073985;28;19919;-60
2023/09/09 11:53:05;;;;;;;;;;;;;;;;;;5077020;28;19939;-60
2023/09/09 11:55:31;;;;;;;;;;;;;;;;;;5083002;28;20394;-61
2023/09/09 11:57:57;;;;;;;;;;;;;;;;;;5077953;28;20018;-61
2023/09/09 12:00:23;;;;;;;;;;;;;;;;;;5072062;28;19949;-61
2023/09/09 12:02:49;;;;;;;;;;;;;;;;;;5077187;28;20309;-59
2023/09/09 12:05:15;;;;;;;;;;;;;;;;;;5071884;28;19912;-60
2023/09/09 12:07:41;;;;;;;;;;;;;;;;;;5081482;28;19975;-59
2023/09/09 12:10:07;;;;;;;;;;;;;;;;;;5073101;28;19912;-59
2023/09/09 12:12:33;;;;;;;;;;;;;;;;;;5072967;28;19912;-59
2023/09/09 12:14:59;;;;;;;;;;;;;;;;;;5081313;28;19935;-59
2023/09/09 12:17:25;;;;;;;;;;;;;;;;;;5074897;28;19968;-59
2023/09/09 12:19:50;;;;;;;;;;;;;;;;;;5075037;28;20370;-60
2023/09/09 12:22:16;;;;;;;;;;;;;;;;;;5076874;28;20351;-60
2023/09/09 12:24:42;;;;;;;;;;;;;;;;;;5077196;28;19995;-60
2023/09/09 12:27:08;;;;;;;;;;;;;;;;;;5085496;28;19960;-61
2023/09/09 12:29:34;;;;;;;;;;;;;;;;;;5084583;28;19959;-60
2023/09/09 12:32:00;;;;;;;;;;;;;;;;;;5077182;28;19956;-60
2023/09/09 12:34:26;;;;;;;;;;;;;;;;;;5083980;28;19913;-60
2023/09/09 12:36:52;;;;;;;;;;;;;;;;;;5074454;28;19920;-60
2023/09/09 12:39:18;;;;;;;;;;;;;;;;;;5073418;28;20018;-60
2023/09/09 12:41:44;;;;;;;;;;;;;;;;;;5073036;28;19960;-57
2023/09/09 12:44:11;;;;;;;;;;;;;;;;;;5078869;28;20356;-57
2023/09/09 12:46:36;;;;;;;;;;;;;;;;;;5079198;28;20376;-57
2023/09/09 12:49:03;;;;;;;;;;;;;;;;;;5076235;28;19944;-57
2023/09/09 12:51:29;;;;;;;;;;;;;;;;;;5080405;28;19912;-58
2023/09/09 12:53:55;;;;;;;;;;;;;;;;;;5082069;28;20031;-58
2023/09/09 12:56:21;;;;;;;;;;;;;;;;;;5080562;28;20368;-58
2023/09/09 12:58:47;;;;;;;;;;;;;;;;;;5081156;28;19981;-57
2023/09/09 13:01:13;;;;;;;;;;;;;;;;;;5078152;28;19935;-57
2023/09/09 13:03:39;;;;;;;;;;;;;;;;;;5083023;28;19944;-58
2023/09/09 13:06:06;;;;;;;;;;;;;;;;;;5089271;28;20699;-57
2023/09/09 13:08:33;;;;;;;;;;;;;;;;;;5074738;28;19920;-57
2023/09/09 13:10:59;;;;;;;;;;;;;;;;;;5077389;28;19935;-58
2023/09/09 13:13:25;;;;;;;;;;;;;;;;;;5077540;28;19959;-58
2023/09/09 13:15:51;;;;;;;;;;;;;;;;;;5089890;28;20291;-58
2023/09/09 13:18:18;;;;;;;;;;;;;;;;;;5085466;28;19922;-57
2023/09/09 13:20:44;;;;;;;;;;;;;;;;;;5088391;28;20352;-57
2023/09/09 13:23:10;;;;;;;;;;;;;;;;;;5085100;28;19912;-58
2023/09/09 13:25:36;;;;;;;;;;;;;;;;;;5075693;28;20342;-58
2023/09/09 13:28:02;;;;;;;;;;;;;;;;;;5076470;28;20023;-60
2023/09/09 13:30:27;;;;;;;;;;;;;;;;;;5074910;28;19924;-58
2023/09/09 13:32:53;;;;;;;;;;;;;;;;;;5075715;28;19954;-59
2023/09/09 13:35:19;;;;;;;;;;;;;;;;;;5074021;28;19936;-57
2023/09/09 13:37:45;;;;;;;;;;;;;;;;;;5077061;28;20381;-57
2023/09/09 13:40:11;;;;;;;;;;;;;;;;;;5079544;28;19926;-58
2023/09/09 13:42:37;;;;;;;;;;;;;;;;;;5080875;28;19916;-57
2023/09/09 13:45:03;;;;;;;;;;;;;;;;;;5079123;28;19943;-57
2023/09/09 13:47:29;;;;;;;;;;;;;;;;;;5084576;28;19923;-58
2023/09/09 13:49:55;;;;;;;;;;;;;;;;;;5086417;28;20608;-61
2023/09/09 13:52:20;;;;;;;;;;;;;;;;;;5085017;28;19947;-61
2023/09/09 13:54:46;;;;;;;;;;;;;;;;;;5076995;28;20242;-60
2023/09/09 13:57:12;;;;;;;;;;;;;;;;;;5079687;28;19920;-61
2023/09/09 13:59:38;;;;;;;;;;;;;;;;;;5074857;28;19955;-61
2023/09/09 14:02:04;;;;;;;;;;;;;;;;;;5077336;28;19931;-62
2023/09/09 14:04:30;;;;;;;;;;;;;;;;;;5079758;28;19913;-61
2023/09/09 14:06:56;;;;;;;;;;;;;;;;;;5077798;28;20377;-61
2023/09/09 14:09:22;;;;;;;;;;;;;;;;;;5089722;28;19973;-61
2023/09/09 14:11:48;;;;;;;;;;;;;;;;;;5079483;28;19920;-62
2023/09/09 14:14:14;;;;;;;;;;;;;;;;;;5084384;28;19998;-61
2023/09/09 14:16:40;;;;;;;;;;;;;;;;;;5073588;28;19963;-61
2023/09/09 14:19:06;;;;;;;;;;;;;;;;;;5075674;28;19974;-61
2023/09/09 14:21:32;;;;;;;;;;;;;;;;;;5081149;28;20333;-61
2023/09/09 14:23:57;;;;;;;;;;;;;;;;;;5079661;28;19919;-61
2023/09/09 14:26:23;;;;;;;;;;;;;;;;;;5091561;28;19980;-61
2023/09/09 14:28:49;;;;;;;;;;;;;;;;;;5078581;28;19947;-61
2023/09/09 14:31:15;;;;;;;;;;;;;;;;;;5080565;28;19955;-60
2023/09/09 14:33:41;;;;;;;;;;;;;;;;;;5085689;28;19955;-61
2023/09/09 14:36:07;;;;;;;;;;;;;;;;;;5077546;28;20028;-62
2023/09/09 14:38:33;;;;;;;;;;;;;;;;;;5076666;28;19916;-61
2023/09/09 14:40:59;;;;;;;;;;;;;;;;;;5074832;28;19971;-61
2023/09/09 14:43:25;;;;;;;;;;;;;;;;;;5080381;28;19985;-61
2023/09/09 14:45:51;;;;;;;;;;;;;;;;;;5076893;28;20375;-61
2023/09/09 14:48:17;;;;;;;;;;;;;;;;;;5079527;28;19958;-61
2023/09/09 14:50:43;;;;;;;;;;;;;;;;;;5078318;28;19922;-61
2023/09/09 14:53:09;;;;;;;;;;;;;;;;;;5079600;28;20481;-60
2023/09/09 14:55:35;;;;;;;;;;;;;;;;;;5083767;28;19963;-61
2023/09/09 14:58:01;;;;;;;;;;;;;;;;;;5077888;28;19921;-61
2023/09/09 15:00:27;;;;;;;;;;;;;;;;;;5076841;28;20077;-60
2023/09/09 15:02:53;;;;;;;;;;;;;;;;;;5073360;28;20026;-59
2023/09/09 15:05:19;;;;;;;;;;;;;;;;;;5072896;28;20283;-60
2023/09/09 15:07:45;;;;;;;;;;;;;;;;;;5080357;28;19995;-60
2023/09/09 15:10:11;;;;;;;;;;;;;;;;;;5074125;28;19920;-60
2023/09/09 15:12:37;;;;;;;;;;;;;;;;;;5075314;28;20009;-60
2023/09/09 15:15:02;;;;;;;;;;;;;;;;;;5078653;28;19962;-60
2023/09/09 15:17:28;;;;;;;;;;;;;;;;;;5077357;28;19921;-60
2023/09/09 15:19:54;;;;;;;;;;;;;;;;;;5075923;28;19966;-61
2023/09/09 15:22:20;;;;;;;;;;;;;;;;;;5078480;28;20032;-60
2023/09/09 15:24:46;;;;;;;;;;;;;;;;;;5081597;28;20359;-60
2023/09/09 15:27:12;;;;;;;;;;;;;;;;;;5085219;28;19912;-60
2023/09/09 15:29:38;;;;;;;;;;;;;;;;;;5076904;28;19920;-59
2023/09/09 15:32:04;;;;;;;;;;;;;;;;;;5075939;28;19923;-59
2023/09/09 15:34:30;;;;;;;;;;;;;;;;;;5076797;28;19943;-59
2023/09/09 15:36:56;;;;;;;;;;;;;;;;;;5083519;28;19914;-59
2023/09/09 15:39:21;;;;;;;;;;;;;;;;;;5073768;28;19912;-59
2023/09/09 15:41:47;;;;;;;;;;;;;;;;;;5085037;28;20355;-59
2023/09/09 15:44:13;;;;;;;;;;;;;;;;;;5078565;28;19918;-59
2023/09/09 15:46:39;;;;;;;;;;;;;;;;;;5079574;28;20019;-59
2023/09/09 15:49:05;;;;;;;;;;;;;;;;;;5085766;28;19915;-58
2023/09/09 15:51:31;;;;;;;;;;;;;;;;;;5079306;28;20356;-58
2023/09/09 15:53:57;;;;;;;;;;;;;;;;;;5081900;28;19908;-59
2023/09/09 15:56:23;;;;;;;;;;;;;;;;;;5078467;28;20602;-59
2023/09/09 15:58:49;;;;;;;;;;;;;;;;;;5079796;28;19984;-59
2023/09/09 16:01:15;;;;;;;;;;;;;;;;;;5077271;28;19996;-59
2023/09/09 16:03:41;;;;;;;;;;;;;;;;;;5077328;28;19916;-59
2023/09/09 16:06:07;;;;;;;;;;;;;;;;;;5079244;28;20034;-58
2023/09/09 16:08:33;;;;;;;;;;;;;;;;;;5078131;28;19916;-58
2023/09/09 16:10:59;;;;;;;;;;;;;;;;;;5077972;28;20667;-62
2023/09/09 16:13:25;;;;;;;;;;;;;;;;;;5083644;28;19963;-61
2023/09/09 16:15:51;;;;;;;;;;;;;;;;;;5073560;28;19917;-61
2023/09/09 16:18:17;;;;;;;;;;;;;;;;;;5074864;28;19984;-61
2023/09/09 16:20:43;;;;;;;;;;;;;;;;;;5071862;28;19924;-61
2023/09/09 16:23:09;;;;;;;;;;;;;;;;;;5080173;28;19923;-61
2023/09/09 16:25:35;;;;;;;;;;;;;;;;;;5078480;28;19952;-61
2023/09/09 16:28:01;;;;;;;;;;;;;;;;;;5080201;28;19932;-61
2023/09/09 16:30:27;;;;;;;;;;;;;;;;;;5076028;28;20324;-63
2023/09/09 16:32:53;;;;;;;;;;;;;;;;;;5077486;28;19923;-63
2023/09/09 16:35:19;;;;;;;;;;;;;;;;;;5078915;28;19912;-63
2023/09/09 16:37:44;;;;;;;;;;;;;;;;;;5077513;28;19967;-63